Time;durP1;ratioP1;P1;durP2;ratioP2;P2;SDS_P1;SDS_P2;PMS_P1;PMS_P2;Temp;Humidity;BMP_temperature;BMP_pressure;BME280_temperature;BME280_humidity;BME280_pressure;Samples;Min_cycle;Max_cycle;Signal;HPM_P1;HPM_P2
2022/05/20 00:00:33;;;;;;;6.65;1.27;;;16.00;95.20;;;;;;5039573;28;20128;-55
2022/05/20 00:03:00;;;;;;;7.05;1.30;;;15.90;95.10;;;;;;5038209;28;20103;-57
2022/05/20 00:05:27;;;;;;;5.05;1.20;;;15.80;95.30;;;;;;5039361;28;20049;-58
2022/05/20 00:07:54;;;;;;;3.80;1.50;;;15.90;95.70;;;;;;5042694;28;20124;-58
2022/05/20 00:10:22;;;;;;;5.15;1.50;;;15.90;96.20;;;;;;5038597;28;20538;-57
2022/05/20 00:12:49;;;;;;;6.03;1.30;;;15.90;96.20;;;;;;5042512;28;20137;-57
2022/05/20 00:15:19;;;;;;;6.50;1.52;;;15.80;96.30;;;;;;5041187;28;20103;-59
2022/05/20 00:17:46;;;;;;;4.85;1.40;;;15.80;96.60;;;;;;5045134;28;20136;-55
2022/05/20 00:20:14;;;;;;;4.32;1.83;;;15.70;96.80;;;;;;5030564;28;20049;-57
2022/05/20 00:22:41;;;;;;;5.15;1.30;;;15.60;96.80;;;;;;5042445;28;20558;-55
2022/05/20 00:27:54;;;;;;;8.88;1.98;;;15.60;97.20;;;;;;5043901;28;20067;-57
2022/05/20 00:30:21;;;;;;;7.70;1.50;;;15.70;97.10;;;;;;5044259;28;20136;-59
2022/05/20 00:32:48;;;;;;;6.80;1.35;;;15.60;97.30;;;;;;4685306;28;10000135;-58
2022/05/20 00:35:15;;;;;;;5.35;1.25;;;15.50;97.30;;;;;;5040076;28;20093;-58
2022/05/20 00:37:42;;;;;;;8.82;1.33;;;15.50;97.20;;;;;;5046309;28;20088;-57
2022/05/20 00:40:10;;;;;;;6.18;1.20;;;15.50;97.30;;;;;;5045978;28;20045;-58
2022/05/20 00:42:36;;;;;;;7.40;2.80;;;15.40;97.60;;;;;;5040250;28;20132;-57
2022/05/20 00:45:04;;;;;;;9.00;1.48;;;15.40;97.60;;;;;;5048487;28;20119;-57
2022/05/20 00:47:31;;;;;;;5.22;1.35;;;15.40;97.80;;;;;;5038075;28;20152;-58
2022/05/20 00:50:00;;;;;;;10.50;2.50;;;15.40;98.00;;;;;;5037508;28;20052;-56
2022/05/20 00:52:28;;;;;;;11.07;1.88;;;15.40;98.00;;;;;;5051802;28;20136;-62
2022/05/20 00:54:57;;;;;;;9.57;1.45;;;15.40;98.10;;;;;;5063145;28;20044;-57
2022/05/20 00:57:27;;;;;;;3.35;1.13;;;15.30;98.10;;;;;;5039692;28;20053;-58
2022/05/20 01:00:10;;;;;;;7.10;2.10;;;15.30;98.20;;;;;;5039861;28;20496;-57
2022/05/20 01:02:36;;;;;;;5.03;1.45;;;15.30;98.50;;;;;;5038189;28;20056;-56
2022/05/20 01:05:11;;;;;;;4.50;1.20;;;15.40;98.20;;;;;;5041087;28;20045;-61
2022/05/20 01:07:39;;;;;;;5.05;1.67;;;15.40;98.30;;;;;;5033558;28;20080;-58
2022/05/20 01:10:06;;;;;;;7.10;1.20;;;15.30;98.30;;;;;;5079013;28;20064;-58
2022/05/20 01:12:33;;;;;;;3.88;1.30;;;15.20;98.20;;;;;;5038903;28;20061;-58
2022/05/20 01:15:00;;;;;;;4.18;1.20;;;15.20;98.30;;;;;;5046337;28;20132;-58
2022/05/20 01:17:27;;;;;;;9.43;1.45;;;15.00;98.30;;;;;;5026415;28;20096;-58
2022/05/20 01:19:55;;;;;;;5.82;1.02;;;14.90;98.50;;;;;;5037056;28;20038;-58
2022/05/20 01:22:40;;;;;;;6.90;1.23;;;14.90;98.50;;;;;;5034648;28;20041;-58
2022/05/20 01:25:08;;;;;;;7.18;1.95;;;14.80;99.00;;;;;;5040817;28;20072;-59
2022/05/20 01:27:42;;;;;;;4.63;1.23;;;14.80;98.30;;;;;;5045794;28;20076;-58
2022/05/20 01:30:11;;;;;;;8.90;1.83;;;14.80;98.40;;;;;;5046409;28;20072;-55
2022/05/20 01:32:37;;;;;;;4.18;1.10;;;14.70;98.80;;;;;;5042489;28;20135;-56
2022/05/20 01:35:05;;;;;;;7.88;1.65;;;14.70;98.90;;;;;;5038642;28;20132;-56
2022/05/20 01:37:32;;;;;;;7.30;1.92;;;14.60;98.90;;;;;;5049415;28;20136;-57
2022/05/20 01:40:00;;;;;;;9.10;1.15;;;14.60;99.20;;;;;;5045003;28;20052;-56
2022/05/20 01:42:43;;;;;;;12.63;1.73;;;14.70;99.40;;;;;;5041701;28;20052;-56
2022/05/20 01:45:23;;;;;;;5.82;1.38;;;14.70;99.90;;;;;;5041428;28;20103;-57
2022/05/20 01:47:57;;;;;;;6.30;1.23;;;14.70;99.70;;;;;;5029129;28;20129;-57
2022/05/20 01:50:37;;;;;;;5.32;1.33;;;14.70;99.90;;;;;;5055796;28;20075;-58
2022/05/20 01:53:37;;;;;;;9.70;1.67;;;14.70;99.90;;;;;;5054876;28;20049;-55
2022/05/20 01:56:14;;;;;;;10.85;1.63;;;14.70;99.90;;;;;;5001954;28;20113;-55
2022/05/20 01:59:06;;;;;;;8.95;1.73;;;14.70;99.90;;;;;;5035853;28;20469;-56
2022/05/20 02:01:49;;;;;;;3.78;1.00;;;14.70;99.90;;;;;;5041558;28;20076;-58
2022/05/20 02:04:20;;;;;;;6.57;1.73;;;14.70;99.90;;;;;;5037040;28;20084;-57
2022/05/20 02:06:51;;;;;;;6.25;1.63;;;14.60;99.90;;;;;;5041018;28;20389;-58
2022/05/20 02:09:27;;;;;;;6.97;1.38;;;14.60;99.90;;;;;;5076449;28;20228;-57
2022/05/20 02:11:55;;;;;;;10.07;2.28;;;14.50;99.90;;;;;;5080286;28;20540;-56
2022/05/20 02:14:43;;;;;;;5.00;1.27;;;14.60;99.90;;;;;;5044525;28;20511;-57
2022/05/20 02:17:36;;;;;;;5.60;1.25;;;14.60;99.90;;;;;;5059129;28;20128;-55
2022/05/20 02:20:14;;;;;;;11.63;2.03;;;14.60;99.90;;;;;;5056663;28;20042;-56
2022/05/20 02:22:44;;;;;;;6.95;1.77;;;14.60;99.90;;;;;;5080356;28;20492;-56
2022/05/20 02:25:19;;;;;;;8.45;2.60;;;14.50;99.90;;;;;;5040366;28;20132;-56
2022/05/20 02:27:48;;;;;;;8.18;1.73;;;14.40;99.90;;;;;;5082475;28;20132;-57
2022/05/20 02:30:16;;;;;;;5.88;1.45;;;14.40;99.90;;;;;;5047478;28;20075;-56
2022/05/20 02:32:49;;;;;;;5.53;1.48;;;14.40;99.90;;;;;;5063807;28;20041;-55
2022/05/20 02:35:15;;;;;;;8.30;2.88;;;14.40;99.90;;;;;;5077977;28;20575;-56
2022/05/20 02:37:42;;;;;;;7.88;1.55;;;14.40;99.90;;;;;;5046525;28;20080;-58
2022/05/20 02:40:11;;;;;;;10.73;1.40;;;14.40;99.90;;;;;;5047966;28;20052;-55
2022/05/20 02:42:38;;;;;;;6.35;1.55;;;14.40;99.90;;;;;;5047847;28;20088;-55
2022/05/20 02:45:06;;;;;;;8.48;1.60;;;14.40;99.90;;;;;;5048085;28;20044;-57
2022/05/20 02:47:33;;;;;;;7.40;1.17;;;14.40;99.90;;;;;;5061320;28;20211;-55
2022/05/20 02:50:01;;;;;;;7.00;1.38;;;14.30;99.90;;;;;;5039754;28;20049;-54
2022/05/20 02:52:28;;;;;;;5.22;1.45;;;14.30;99.90;;;;;;5043609;28;20132;-55
2022/05/20 02:54:54;;;;;;;6.75;1.65;;;14.40;99.90;;;;;;5043269;28;20120;-54
2022/05/20 02:57:21;;;;;;;13.15;1.50;;;14.30;99.90;;;;;;5043783;28;20456;-57
2022/05/20 03:05:19;;;;;;;6.15;1.40;;;14.40;99.90;;;;;;5040059;28;20052;-57
2022/05/20 03:07:45;;;;;;;2.88;1.45;;;14.40;99.90;;;;;;5043572;28;20079;-57
2022/05/20 03:10:12;;;;;;;6.53;1.27;;;14.50;99.90;;;;;;5047732;28;20132;-57
2022/05/20 03:12:39;;;;;;;6.57;1.10;;;14.50;99.90;;;;;;5043850;28;20080;-56
2022/05/20 03:15:09;;;;;;;5.95;1.15;;;14.50;99.90;;;;;;5049245;28;20424;-57
2022/05/20 03:17:35;;;;;;;5.65;1.15;;;14.60;99.90;;;;;;5041694;28;20136;-54
2022/05/20 03:20:03;;;;;;;3.92;1.02;;;14.50;99.90;;;;;;5049988;28;20278;-58
2022/05/20 03:22:32;;;;;;;8.30;1.45;;;14.40;99.90;;;;;;5042574;28;20068;-55
2022/05/20 03:24:59;;;;;;;5.18;1.48;;;14.40;99.90;;;;;;5049232;28;20148;-56
2022/05/20 03:27:27;;;;;;;4.63;1.20;;;14.40;99.90;;;;;;5048144;28;20045;-57
2022/05/20 03:29:54;;;;;;;4.50;1.70;;;14.20;99.90;;;;;;5041423;28;20041;-58
2022/05/20 03:32:21;;;;;;;4.97;1.52;;;14.10;99.90;;;;;;5036360;28;20049;-56
2022/05/20 03:34:48;;;;;;;5.45;1.50;;;14.10;99.90;;;;;;5042664;28;20044;-58
2022/05/20 03:37:14;;;;;;;4.50;1.25;;;14.00;99.90;;;;;;5039118;28;20596;-58
2022/05/20 03:39:41;;;;;;;10.00;1.50;;;14.10;99.90;;;;;;5043510;28;20237;-58
2022/05/20 03:42:08;;;;;;;6.35;1.15;;;14.10;99.90;;;;;;5046339;28;20498;-56
2022/05/20 03:44:35;;;;;;;9.25;1.70;;;14.10;99.90;;;;;;5046609;28;20052;-57
2022/05/20 03:47:02;;;;;;;3.15;1.00;;;14.20;99.90;;;;;;5038971;28;20084;-57
2022/05/20 03:49:29;;;;;;;11.85;2.00;;;14.10;99.90;;;;;;5046073;28;20072;-58
2022/05/20 03:51:57;;;;;;;5.38;1.35;;;14.10;99.90;;;;;;5048261;28;20492;-57
2022/05/20 03:54:28;;;;;;;5.28;1.23;;;14.10;99.90;;;;;;5043992;28;20063;-58
2022/05/20 03:56:54;;;;;;;5.28;1.30;;;14.20;99.90;;;;;;5047048;28;20073;-57
2022/05/20 03:59:21;;;;;;;7.07;1.58;;;14.20;99.90;;;;;;5038965;28;20049;-58
2022/05/20 04:01:57;;;;;;;8.27;1.60;;;14.20;99.90;;;;;;5040949;28;20081;-56
2022/05/20 04:04:24;;;;;;;7.70;1.55;;;14.20;99.90;;;;;;5038278;28;20562;-58
2022/05/20 04:06:50;;;;;;;7.88;1.10;;;14.20;99.90;;;;;;5039165;28;20129;-57
2022/05/20 04:09:17;;;;;;;3.53;1.17;;;14.20;99.90;;;;;;5041095;28;20083;-57
2022/05/20 04:11:44;;;;;;;4.68;1.33;;;14.20;99.90;;;;;;5046004;28;20480;-55
2022/05/20 04:14:11;;;;;;;4.60;1.02;;;14.20;99.90;;;;;;5040154;28;20499;-57
2022/05/20 04:16:38;;;;;;;6.82;1.48;;;14.20;99.90;;;;;;5043538;28;20563;-55
2022/05/20 04:19:05;;;;;;;9.32;1.73;;;14.30;99.90;;;;;;5039555;28;20486;-56
2022/05/20 04:21:31;;;;;;;3.58;1.38;;;14.30;99.90;;;;;;5046779;28;20124;-59
2022/05/20 04:24:02;;;;;;;7.65;1.20;;;14.20;99.90;;;;;;5044216;28;20045;-57
2022/05/20 04:26:29;;;;;;;10.68;1.60;;;14.20;99.90;;;;;;5048798;28;20079;-56
2022/05/20 04:28:56;;;;;;;6.20;1.42;;;14.20;99.90;;;;;;5041486;28;20073;-57
2022/05/20 04:31:22;;;;;;;4.47;1.35;;;14.20;99.90;;;;;;5046080;28;20128;-56
2022/05/20 04:33:49;;;;;;;6.38;1.48;;;14.20;99.90;;;;;;5028923;28;20570;-58
2022/05/20 04:36:16;;;;;;;5.78;1.70;;;14.20;99.90;;;;;;5043432;28;20049;-56
2022/05/20 04:38:43;;;;;;;4.65;1.05;;;14.20;99.90;;;;;;5043092;28;20045;-57
2022/05/20 04:46:59;;;;;;;6.28;1.23;;;14.10;99.90;;;;;;5041775;28;20598;-55
2022/05/20 04:49:27;;;;;;;5.50;1.55;;;14.20;99.90;;;;;;5036910;28;20103;-58
2022/05/20 04:51:54;;;;;;;3.72;0.88;;;14.30;99.90;;;;;;5045141;28;20048;-57
2022/05/20 04:57:06;;;;;;;9.63;1.80;;;14.40;99.90;;;;;;5047922;28;20152;-58
2022/05/20 04:59:37;;;;;;;3.13;0.90;;;14.30;99.90;;;;;;5034394;28;20712;-57
2022/05/20 05:02:04;;;;;;;7.47;1.10;;;14.30;99.90;;;;;;5041226;28;20153;-56
2022/05/20 05:04:32;;;;;;;4.50;1.20;;;14.40;99.90;;;;;;5050921;28;20049;-56
2022/05/20 05:06:59;;;;;;;4.10;1.02;;;14.30;99.90;;;;;;5037431;28;20492;-58
2022/05/20 05:09:25;;;;;;;9.50;1.17;;;14.30;99.90;;;;;;5035396;28;20073;-58
2022/05/20 05:11:52;;;;;;;5.55;1.10;;;14.30;99.90;;;;;;5042796;28;20135;-59
2022/05/20 05:14:19;;;;;;;2.70;1.08;;;14.40;99.90;;;;;;5045400;28;20128;-58
2022/05/20 05:16:46;;;;;;;5.93;1.27;;;14.40;99.90;;;;;;5039651;28;20091;-57
2022/05/20 05:19:13;;;;;;;4.20;0.88;;;14.40;99.90;;;;;;5041170;28;20144;-58
2022/05/20 05:21:39;;;;;;;6.50;1.00;;;14.50;99.90;;;;;;5034257;28;20339;-56
2022/05/20 05:24:07;;;;;;;5.45;0.80;;;14.50;99.90;;;;;;5047839;28;20510;-57
2022/05/20 05:26:36;;;;;;;10.35;1.17;;;14.60;99.90;;;;;;5038301;28;20072;-56
2022/05/20 05:29:04;;;;;;;5.00;0.90;;;14.60;99.90;;;;;;5037725;28;20137;-56
2022/05/20 05:31:30;;;;;;;3.03;1.00;;;14.60;99.90;;;;;;5051935;28;20144;-54
2022/05/20 05:33:57;;;;;;;2.08;0.77;;;14.60;99.90;;;;;;5070538;28;20486;-56
2022/05/20 05:36:25;;;;;;;14.93;1.58;;;14.70;99.90;;;;;;5030700;28;20140;-58
2022/05/20 05:38:51;;;;;;;7.95;1.75;;;14.60;99.90;;;;;;5046642;28;20081;-55
2022/05/20 05:41:19;;;;;;;10.00;1.73;;;14.60;99.90;;;;;;5036032;28;20068;-56
2022/05/20 05:43:46;;;;;;;3.10;1.00;;;14.60;99.90;;;;;;5039581;28;20133;-55
2022/05/20 05:46:13;;;;;;;4.65;0.73;;;14.60;99.90;;;;;;5044185;28;20076;-57
2022/05/20 05:48:40;;;;;;;3.72;0.93;;;14.60;99.90;;;;;;5043355;28;20052;-58
2022/05/20 05:51:06;;;;;;;6.63;1.00;;;14.70;99.90;;;;;;5042819;28;20089;-56
2022/05/20 05:53:33;;;;;;;6.32;1.10;;;14.70;99.90;;;;;;5045297;28;20567;-57
2022/05/20 05:56:04;;;;;;;2.65;1.50;;;14.80;99.90;;;;;;5040484;28;20472;-57
2022/05/20 05:58:31;;;;;;;5.85;0.85;;;14.90;99.80;;;;;;5045383;28;20083;-55
2022/05/20 06:00:58;;;;;;;15.18;2.97;;;14.90;99.70;;;;;;5050133;28;20072;-56
2022/05/20 06:03:24;;;;;;;11.65;1.23;;;14.90;99.40;;;;;;5043107;28;20140;-58
2022/05/20 06:05:51;;;;;;;4.30;1.30;;;14.90;99.30;;;;;;5036912;28;20392;-58
2022/05/20 06:08:18;;;;;;;4.15;1.13;;;15.00;99.30;;;;;;5043405;28;20045;-57
2022/05/20 06:10:45;;;;;;;5.22;1.00;;;14.90;99.30;;;;;;5042327;28;20120;-57
2022/05/20 06:13:12;;;;;;;4.75;1.48;;;14.90;99.60;;;;;;5043793;28;20049;-56
2022/05/20 06:15:39;;;;;;;4.80;0.93;;;14.90;99.90;;;;;;5039437;28;20045;-56
2022/05/20 06:18:06;;;;;;;6.13;1.95;;;14.90;99.90;;;;;;5033977;28;20049;-53
2022/05/20 06:20:33;;;;;;;4.80;1.58;;;15.00;99.90;;;;;;5045305;28;20045;-57
2022/05/20 06:23:01;;;;;;;2.40;0.80;;;15.00;99.90;;;;;;5050952;28;20585;-58
2022/05/20 06:25:29;;;;;;;6.50;1.27;;;15.10;99.70;;;;;;5078665;28;20065;-57
2022/05/20 06:28:06;;;;;;;4.68;1.10;;;15.10;99.90;;;;;;5050820;28;20136;-56
2022/05/20 06:30:33;;;;;;;3.85;1.20;;;15.10;99.90;;;;;;5050602;28;20087;-56
2022/05/20 06:33:01;;;;;;;3.95;1.40;;;15.10;99.90;;;;;;5050979;28;20140;-62
2022/05/20 06:40:59;;;;;;;7.85;1.13;;;15.20;99.50;;;;;;5050269;28;20045;-60
2022/05/20 06:43:26;;;;;;;3.88;0.85;;;15.30;99.30;;;;;;5050622;28;20129;-56
2022/05/20 06:45:56;;;;;;;3.83;1.38;;;15.30;98.60;;;;;;5048338;28;20041;-55
2022/05/20 06:48:51;;;;;;;6.80;0.80;;;15.20;98.50;;;;;;5073937;28;20117;-55
2022/05/20 06:51:21;;;;;;;5.88;1.40;;;15.10;97.80;;;;;;5048432;28;20045;-56
2022/05/20 06:53:48;;;;;;;8.73;1.92;;;15.10;98.30;;;;;;5080912;28;20606;-56
2022/05/20 06:56:15;;;;;;;8.20;1.75;;;15.20;99.30;;;;;;5048823;28;20194;-56
2022/05/20 06:58:43;;;;;;;8.13;1.27;;;15.20;99.20;;;;;;5080762;28;20049;-52
2022/05/20 07:01:09;;;;;;;3.13;0.90;;;15.20;99.40;;;;;;5048970;28;20045;-53
2022/05/20 07:03:36;;;;;;;7.78;1.50;;;15.20;99.50;;;;;;5049454;28;20126;-51
2022/05/20 07:06:03;;;;;;;5.50;0.90;;;15.30;99.70;;;;;;5043175;28;20084;-58
2022/05/20 07:08:31;;;;;;;9.80;1.33;;;15.30;99.40;;;;;;5032415;28;20212;-57
2022/05/20 07:11:04;;;;;;;6.10;1.23;;;15.30;99.90;;;;;;5042129;28;20049;-52
2022/05/20 07:13:38;;;;;;;3.80;1.10;;;15.30;99.60;;;;;;5049335;28;20065;-55
2022/05/20 07:16:05;;;;;;;3.85;1.10;;;15.20;99.90;;;;;;5048875;28;20107;-56
2022/05/20 07:18:34;;;;;;;6.25;1.25;;;15.30;99.90;;;;;;5049225;28;20048;-54
2022/05/20 07:21:01;;;;;;;10.90;2.15;;;15.20;99.90;;;;;;5048953;28;20069;-56
2022/05/20 07:23:29;;;;;;;7.53;1.42;;;15.10;99.90;;;;;;5049132;28;20224;-53
2022/05/20 07:25:56;;;;;;;9.70;1.65;;;14.90;99.90;;;;;;5049120;28;20690;-54
2022/05/20 07:28:23;;;;;;;6.55;1.20;;;14.80;99.90;;;;;;5049548;28;20575;-55
2022/05/20 07:30:50;;;;;;;6.25;1.20;;;14.60;99.90;;;;;;5049001;28;20124;-54
2022/05/20 07:33:17;;;;;;;5.57;1.10;;;14.60;99.90;;;;;;5049290;28;20566;-53
2022/05/20 07:35:43;;;;;;;8.73;1.48;;;14.50;99.90;;;;;;5048614;28;20111;-52
2022/05/20 07:38:10;;;;;;;6.22;1.60;;;14.50;99.90;;;;;;5048752;28;20484;-51
2022/05/20 07:40:37;;;;;;;4.43;1.10;;;14.50;99.90;;;;;;5049107;28;20063;-55
2022/05/20 07:43:10;;;;;;;11.85;1.52;;;14.50;99.90;;;;;;5043618;28;20053;-54
2022/05/20 07:45:37;;;;;;;6.97;1.40;;;14.30;99.90;;;;;;5032905;28;20056;-55
2022/05/20 07:48:04;;;;;;;5.07;1.23;;;14.20;99.90;;;;;;5048450;28;20184;-51
2022/05/20 07:50:33;;;;;;;6.22;1.88;;;14.20;99.90;;;;;;5048835;28;20098;-58
2022/05/20 07:55:57;;;;;;;4.95;1.48;;;14.10;99.90;;;;;;5053892;28;20113;-54
2022/05/20 07:58:51;;;;;;;8.48;1.42;;;14.10;99.90;;;;;;5046378;28;20049;-56
2022/05/20 08:01:23;;;;;;;6.35;1.25;;;14.10;99.90;;;;;;5079684;28;20053;-51
2022/05/20 08:06:47;;;;;;;7.32;1.73;;;14.00;99.90;;;;;;5024564;28;20072;-54
2022/05/20 08:09:14;;;;;;;3.53;1.10;;;13.90;99.90;;;;;;5079618;28;20491;-52
2022/05/20 08:11:41;;;;;;;13.40;1.70;;;13.80;99.90;;;;;;5048461;28;20052;-54
2022/05/20 08:14:08;;;;;;;6.65;1.40;;;13.70;99.90;;;;;;5048214;28;20122;-54
2022/05/20 08:16:34;;;;;;;5.05;1.40;;;13.70;99.90;;;;;;5048251;28;20128;-55
2022/05/20 08:19:01;;;;;;;7.40;1.48;;;13.50;99.90;;;;;;5048138;28;20207;-52
2022/05/20 08:21:28;;;;;;;12.75;2.10;;;13.50;99.90;;;;;;5048320;28;20083;-56
2022/05/20 08:23:55;;;;;;;13.48;2.33;;;13.30;99.90;;;;;;5048317;28;20164;-49
2022/05/20 08:26:21;;;;;;;5.30;1.23;;;13.30;99.90;;;;;;5048404;28;20045;-52
2022/05/20 08:28:48;;;;;;;4.38;1.33;;;13.10;99.90;;;;;;5048206;28;20053;-52
2022/05/20 08:31:15;;;;;;;9.75;1.30;;;13.10;99.90;;;;;;5048105;28;20175;-54
2022/05/20 08:33:43;;;;;;;5.15;1.13;;;13.10;99.90;;;;;;5046296;28;20049;-55
2022/05/20 08:36:09;;;;;;;3.50;0.95;;;13.00;99.90;;;;;;5046700;28;20096;-51
2022/05/20 08:38:36;;;;;;;4.10;1.17;;;12.90;99.90;;;;;;5045838;28;20219;-54
2022/05/20 08:41:03;;;;;;;4.97;0.80;;;12.90;99.90;;;;;;5046754;28;20083;-53
2022/05/20 08:43:34;;;;;;;4.90;1.00;;;12.90;99.90;;;;;;5077806;28;20079;-54
2022/05/20 08:46:01;;;;;;;5.22;0.80;;;12.70;99.90;;;;;;5046485;28;20044;-55
2022/05/20 08:48:28;;;;;;;3.92;1.00;;;12.70;99.90;;;;;;5048574;28;20102;-53
2022/05/20 08:50:56;;;;;;;3.30;0.90;;;12.70;99.90;;;;;;5056049;28;20086;-52
2022/05/20 08:53:32;;;;;;;6.18;1.08;;;12.70;99.90;;;;;;5075212;28;20139;-54
2022/05/20 08:56:07;;;;;;;5.25;0.90;;;12.70;99.90;;;;;;5062144;28;20069;-54
2022/05/20 08:58:35;;;;;;;5.80;2.10;;;12.60;99.90;;;;;;5042684;28;20076;-54
2022/05/20 09:01:02;;;;;;;4.65;0.98;;;12.50;99.90;;;;;;5049910;28;20114;-55
2022/05/20 09:03:28;;;;;;;5.20;1.55;;;12.40;99.90;;;;;;5047352;28;20056;-53
2022/05/20 09:06:12;;;;;;;3.00;1.00;;;12.40;99.90;;;;;;5046328;28;20131;-54
2022/05/20 09:08:38;;;;;;;7.97;1.95;;;12.40;99.90;;;;;;5078601;28;20080;-53
2022/05/20 09:11:07;;;;;;;2.10;1.10;;;12.40;99.90;;;;;;5046099;28;20064;-53
2022/05/20 09:16:27;;;;;;;7.07;1.33;;;12.50;99.90;;;;;;5047199;28;20114;-55
2022/05/20 09:19:14;;;;;;;6.55;1.20;;;12.50;99.90;;;;;;5062410;28;20057;-55
2022/05/20 09:21:59;;;;;;;4.72;1.15;;;12.50;99.90;;;;;;5077177;28;20079;-53
2022/05/20 09:24:26;;;;;;;1.98;0.95;;;12.40;99.90;;;;;;5076335;28;20127;-54
2022/05/20 09:27:12;;;;;;;5.28;1.55;;;12.40;99.90;;;;;;5047448;28;20075;-54
2022/05/20 09:29:47;;;;;;;7.43;1.50;;;12.40;99.90;;;;;;5047002;28;20064;-53
2022/05/20 09:32:49;;;;;;;4.65;1.10;;;12.40;99.90;;;;;;5062175;28;20080;-52
2022/05/20 09:35:19;;;;;;;6.00;1.42;;;12.30;99.90;;;;;;5056225;28;20068;-53
2022/05/20 09:37:47;;;;;;;3.10;1.15;;;12.40;99.90;;;;;;5047272;28;20045;-52
2022/05/20 09:40:24;;;;;;;4.72;1.80;;;12.40;99.90;;;;;;5047138;28;20199;-54
2022/05/20 09:43:22;;;;;;;3.80;1.08;;;12.40;99.90;;;;;;5039983;28;20053;-55
2022/05/20 09:45:50;;;;;;;5.68;1.75;;;12.40;99.90;;;;;;5046954;28;20086;-54
2022/05/20 09:48:24;;;;;;;6.00;1.58;;;12.30;99.90;;;;;;5047297;28;20076;-53
2022/05/20 09:51:02;;;;;;;5.00;2.10;;;12.40;99.90;;;;;;5061410;28;20135;-50
2022/05/20 09:53:35;;;;;;;6.95;1.23;;;12.40;99.90;;;;;;5047116;28;20049;-54
2022/05/20 09:56:24;;;;;;;8.70;1.15;;;12.50;99.90;;;;;;5046840;28;20049;-56
2022/05/20 09:59:22;;;;;;;4.43;1.30;;;12.60;99.90;;;;;;5045748;28;20053;-54
2022/05/20 10:01:57;;;;;;;3.42;1.05;;;12.60;99.90;;;;;;5046474;28;20467;-51
2022/05/20 10:04:44;;;;;;;10.00;1.42;;;12.50;99.90;;;;;;5047206;28;20045;-52
2022/05/20 10:07:13;;;;;;;5.00;1.50;;;12.50;99.90;;;;;;5046628;28;20056;-54
2022/05/20 10:10:03;;;;;;;6.70;1.10;;;12.50;99.90;;;;;;5078840;28;20557;-55
2022/05/20 10:12:32;;;;;;;5.10;1.48;;;12.60;99.90;;;;;;5045435;28;20111;-54
2022/05/20 10:15:06;;;;;;;11.68;1.73;;;12.50;99.90;;;;;;5061950;28;20589;-55
2022/05/20 10:18:01;;;;;;;6.85;1.98;;;12.50;99.90;;;;;;5046654;28;20084;-56
2022/05/20 10:20:38;;;;;;;5.57;1.65;;;12.30;99.90;;;;;;5027043;28;20085;-54
2022/05/20 10:23:28;;;;;;;4.50;1.58;;;12.30;99.90;;;;;;5044143;28;20120;-53
2022/05/20 10:26:10;;;;;;;5.50;1.27;;;12.30;99.90;;;;;;5075695;28;20597;-54
2022/05/20 10:34:40;;;;;;;7.97;1.55;;;12.20;99.90;;;;;;5053428;28;20049;-56
2022/05/20 10:37:28;;;;;;;5.93;1.73;;;12.10;99.90;;;;;;5065186;28;20053;-56
2022/05/20 10:40:22;;;;;;;16.88;2.42;;;12.10;99.90;;;;;;5072027;28;20161;-56
2022/05/20 10:43:01;;;;;;;9.32;2.05;;;12.10;99.90;;;;;;5063885;28;20139;-55
2022/05/20 10:48:36;;;;;;;6.70;2.30;;;12.30;99.90;;;;;;5077223;28;20072;-54
2022/05/20 10:51:24;;;;;;;6.60;1.98;;;12.30;99.90;;;;;;5050128;28;20140;-54
2022/05/20 10:54:06;;;;;;;5.50;2.50;;;12.30;99.90;;;;;;5081906;28;20320;-54
2022/05/20 10:57:01;;;;;;;4.63;2.35;;;12.20;99.90;;;;;;5031504;28;20077;-52
2022/05/20 10:59:55;;;;;;;12.30;4.22;;;12.20;99.90;;;;;;5076502;28;20076;-52
2022/05/20 11:02:36;;;;;;;9.90;2.53;;;12.20;99.90;;;;;;5081606;28;20512;-63
2022/05/20 11:05:33;;;;;;;6.07;2.25;;;12.30;99.90;;;;;;5049815;28;20045;-54
2022/05/20 11:08:31;;;;;;;11.50;3.00;;;12.30;99.90;;;;;;5049708;28;20087;-53
2022/05/20 11:11:22;;;;;;;10.23;3.15;;;12.50;99.90;;;;;;5048976;28;20419;-55
2022/05/20 11:14:11;;;;;;;7.65;2.55;;;12.60;99.90;;;;;;5049805;28;20045;-59
2022/05/20 11:17:09;;;;;;;12.95;3.72;;;12.80;99.90;;;;;;5049925;28;20041;-55
2022/05/20 11:19:48;;;;;;;8.93;2.53;;;12.80;99.90;;;;;;5049791;28;20098;-56
2022/05/20 11:22:44;;;;;;;15.10;4.38;;;12.90;99.90;;;;;;5080290;28;20102;-54
2022/05/20 11:25:16;;;;;;;9.07;2.95;;;13.00;99.90;;;;;;5049228;28;20053;-55
2022/05/20 11:27:49;;;;;;;9.13;2.80;;;13.00;99.90;;;;;;5049707;28;20147;-56
2022/05/20 11:30:28;;;;;;;11.43;3.70;;;13.00;99.90;;;;;;5048789;28;20143;-54
2022/05/20 11:33:13;;;;;;;8.32;2.95;;;13.00;99.90;;;;;;5079744;28;20045;-54
2022/05/20 11:35:55;;;;;;;13.65;5.30;;;13.00;99.90;;;;;;5048710;28;20148;-53
2022/05/20 11:38:38;;;;;;;14.35;3.40;;;13.00;99.90;;;;;;5049081;28;20275;-52
2022/05/20 11:41:11;;;;;;;10.32;3.88;;;13.00;99.90;;;;;;5080261;28;20068;-55
2022/05/20 11:43:45;;;;;;;10.85;3.33;;;12.90;99.90;;;;;;5048555;28;20144;-55
2022/05/20 11:46:26;;;;;;;15.73;3.72;;;13.00;99.90;;;;;;5080417;28;20543;-55
2022/05/20 11:49:17;;;;;;;12.18;3.92;;;13.00;99.90;;;;;;5080951;28;20049;-53
2022/05/20 11:52:02;;;;;;;10.30;3.75;;;13.10;99.90;;;;;;5048666;28;20069;-55
2022/05/20 11:54:57;;;;;;;8.90;3.80;;;13.10;99.90;;;;;;5048693;28;20516;-55
2022/05/20 11:57:27;;;;;;;16.10;4.30;;;13.00;99.90;;;;;;5060503;28;20037;-54
2022/05/20 12:00:04;;;;;;;10.85;3.58;;;13.00;99.90;;;;;;5048549;28;20532;-54
2022/05/20 12:02:47;;;;;;;8.48;3.08;;;13.10;99.90;;;;;;5038695;28;20135;-55
2022/05/20 12:05:15;;;;;;;13.05;3.78;;;13.00;99.90;;;;;;5080267;28;20072;-55
2022/05/20 12:07:42;;;;;;;18.08;4.68;;;13.00;99.90;;;;;;5063939;28;20487;-58
2022/05/20 12:10:43;;;;;;;10.35;3.67;;;13.00;99.90;;;;;;5047413;28;20048;-54
2022/05/20 12:13:22;;;;;;;11.98;2.40;;;13.00;99.90;;;;;;5041439;28;20048;-56
2022/05/20 12:16:12;;;;;;;7.50;2.17;;;13.00;99.90;;;;;;5048256;28;20495;-56
2022/05/20 12:24:41;;;;;;;9.45;2.10;;;12.70;99.90;;;;;;5028669;28;20095;-56
2022/05/20 12:27:22;;;;;;;9.00;3.08;;;12.80;99.90;;;;;;5044834;28;20118;-56
2022/05/20 12:30:03;;;;;;;6.10;2.20;;;12.80;99.90;;;;;;5028604;28;20469;-54
2022/05/20 12:32:36;;;;;;;4.63;1.63;;;12.80;99.90;;;;;;5047607;28;20136;-59
2022/05/20 12:35:13;;;;;;;5.70;1.55;;;12.90;99.90;;;;;;5048352;28;20049;-57
2022/05/20 12:37:43;;;;;;;11.38;3.20;;;13.00;99.90;;;;;;5076452;28;20248;-56
2022/05/20 12:40:16;;;;;;;5.43;1.30;;;13.10;99.90;;;;;;5028225;28;20581;-56
2022/05/20 12:43:12;;;;;;;5.20;1.77;;;13.20;99.90;;;;;;5046608;28;20073;-54
2022/05/20 12:45:53;;;;;;;4.75;1.90;;;13.30;99.90;;;;;;5039260;28;20204;-56
2022/05/20 12:48:28;;;;;;;6.25;2.17;;;13.30;99.90;;;;;;5046802;28;20550;-55
2022/05/20 12:51:07;;;;;;;8.75;1.75;;;13.30;99.90;;;;;;5079766;28;20052;-55
2022/05/20 12:53:36;;;;;;;9.57;1.60;;;13.40;99.90;;;;;;5047220;28;20087;-54
2022/05/20 12:56:03;;;;;;;2.42;1.23;;;13.50;99.90;;;;;;5047104;28;20099;-53
2022/05/20 12:58:31;;;;;;;7.57;2.10;;;13.50;99.90;;;;;;5046808;28;20045;-53
2022/05/20 13:01:00;;;;;;;5.13;1.95;;;13.60;99.90;;;;;;5048167;28;20107;-55
2022/05/20 13:03:43;;;;;;;6.72;1.88;;;13.90;99.90;;;;;;5047430;28;20135;-52
2022/05/20 13:06:14;;;;;;;5.50;1.25;;;14.20;99.90;;;;;;5079456;28;20584;-56
2022/05/20 13:08:48;;;;;;;5.03;1.65;;;14.40;99.90;;;;;;5079094;28;20084;-53
2022/05/20 13:11:16;;;;;;;3.83;1.70;;;14.70;99.90;;;;;;5047959;28;20045;-49
2022/05/20 13:13:44;;;;;;;7.10;2.15;;;14.90;99.90;;;;;;5047435;28;20489;-50
2022/05/20 13:16:12;;;;;;;8.95;1.75;;;14.90;99.90;;;;;;5047925;28;20123;-50
2022/05/20 13:18:41;;;;;;;6.10;1.70;;;15.10;99.90;;;;;;5047250;28;20079;-50
2022/05/20 13:21:15;;;;;;;4.30;1.42;;;15.10;99.90;;;;;;5047467;28;20053;-55
2022/05/20 13:23:47;;;;;;;3.13;1.45;;;15.20;99.90;;;;;;5047540;28;20069;-55
2022/05/20 13:26:28;;;;;;;7.80;2.05;;;15.10;99.90;;;;;;5047705;28;20068;-53
2022/05/20 13:28:59;;;;;;;5.60;1.80;;;15.10;99.90;;;;;;5077567;28;20064;-54
2022/05/20 13:31:26;;;;;;;7.30;1.70;;;15.20;99.90;;;;;;5047492;28;20142;-54
2022/05/20 13:33:53;;;;;;;9.13;1.63;;;15.40;99.90;;;;;;5047200;28;20565;-53
2022/05/20 13:36:22;;;;;;;6.63;1.58;;;15.50;99.90;;;;;;5047430;28;20140;-51
2022/05/20 13:38:51;;;;;;;8.57;1.70;;;15.40;99.90;;;;;;5047290;28;20582;-51
2022/05/20 13:41:25;;;;;;;5.75;1.67;;;15.50;99.90;;;;;;5062760;28;20084;-49
2022/05/20 13:43:53;;;;;;;3.60;1.88;;;15.50;99.90;;;;;;5079227;28;20049;-53
2022/05/20 13:49:16;;;;;;;7.75;1.67;;;15.70;99.90;;;;;;5047321;28;20076;-53
2022/05/20 13:51:53;;;;;;;4.53;1.13;;;15.90;99.90;;;;;;5060917;28;20076;-53
2022/05/20 13:54:32;;;;;;;8.00;0.90;;;16.20;99.90;;;;;;5079196;28;20041;-54
2022/05/20 13:56:59;;;;;;;3.58;0.95;;;16.30;99.90;;;;;;5061295;28;20139;-54
2022/05/20 13:59:35;;;;;;;10.90;1.25;;;15.90;99.90;;;;;;5078925;28;20435;-54